Time;durP1;ratioP1;P1;durP2;ratioP2;P2;SDS_P1;SDS_P2;PMS_P1;PMS_P2;Temp;Humidity;BMP_temperature;BMP_pressure;BME280_temperature;BME280_humidity;BME280_pressure;Samples;Min_cycle;Max_cycle;Signal;HPM_P1;HPM_P2
2021/11/18 00:00:25;;;;;;;15.40;9.67;;;;;;;;;;5005773;28;20656;-54
2021/11/18 00:02:52;;;;;;;14.07;9.37;;;;;;;;;;5004589;28;20329;-52
2021/11/18 00:05:19;;;;;;;12.83;9.47;;;;;;;;;;4994732;28;20168;-52
2021/11/18 00:07:46;;;;;;;12.17;9.47;;;;;;;;;;4978532;28;20253;-52
2021/11/18 00:10:14;;;;;;;15.27;9.97;;;;;;;;;;4986299;28;20183;-53
2021/11/18 00:12:41;;;;;;;14.43;9.90;;;;;;;;;;4989871;28;20634;-53
2021/11/18 00:15:08;;;;;;;11.07;8.60;;;;;;;;;;4978034;28;20234;-53
2021/11/18 00:17:34;;;;;;;15.50;9.30;;;;;;;;;;4985400;28;20753;-52
2021/11/18 00:20:01;;;;;;;13.83;9.37;;;;;;;;;;5003497;28;20181;-52
2021/11/18 00:22:27;;;;;;;12.80;9.17;;;;;;;;;;5006795;28;20261;-52
2021/11/18 00:24:54;;;;;;;13.97;9.20;;;;;;;;;;4992555;28;20205;-52
2021/11/18 00:27:22;;;;;;;11.33;8.40;;;;;;;;;;5007399;28;20175;-53
2021/11/18 00:29:51;;;;;;;15.23;10.00;;;;;;;;;;4998849;28;20590;-53
2021/11/18 00:32:18;;;;;;;13.20;8.87;;;;;;;;;;4989183;28;20174;-53
2021/11/18 00:34:44;;;;;;;11.33;9.17;;;;;;;;;;5008047;28;20768;-53
2021/11/18 00:37:11;;;;;;;12.10;8.63;;;;;;;;;;5006816;28;20175;-53
2021/11/18 00:39:37;;;;;;;15.57;10.13;;;;;;;;;;4975047;28;20226;-53
2021/11/18 00:42:04;;;;;;;11.07;9.07;;;;;;;;;;4988374;28;20178;-53
2021/11/18 00:44:30;;;;;;;12.27;8.43;;;;;;;;;;5007793;28;20181;-53
2021/11/18 00:46:59;;;;;;;15.80;9.90;;;;;;;;;;5000554;28;20185;-53
2021/11/18 00:49:26;;;;;;;14.43;9.27;;;;;;;;;;5006052;28;20190;-53
2021/11/18 00:51:52;;;;;;;13.37;8.77;;;;;;;;;;4989227;28;20182;-53
2021/11/18 00:54:19;;;;;;;12.53;9.17;;;;;;;;;;5005478;28;20257;-53
2021/11/18 00:56:45;;;;;;;15.00;9.63;;;;;;;;;;5006548;28;20663;-53
2021/11/18 00:59:11;;;;;;;14.10;9.53;;;;;;;;;;4999122;28;20226;-53
2021/11/18 01:01:44;;;;;;;13.10;9.17;;;;;;;;;;4989094;28;20186;-53
2021/11/18 01:04:12;;;;;;;14.67;9.43;;;;;;;;;;5007718;28;20171;-53
2021/11/18 01:06:38;;;;;;;12.80;9.03;;;;;;;;;;4996863;28;20174;-53
2021/11/18 01:09:05;;;;;;;13.33;9.37;;;;;;;;;;4983873;28;20187;-53
2021/11/18 01:11:32;;;;;;;13.60;9.30;;;;;;;;;;4989403;28;20666;-52
2021/11/18 01:13:59;;;;;;;12.30;9.20;;;;;;;;;;4980437;28;20243;-53
2021/11/18 01:16:28;;;;;;;12.67;9.20;;;;;;;;;;4967492;28;20195;-53
2021/11/18 01:18:54;;;;;;;12.80;9.13;;;;;;;;;;4970339;28;20206;-53
2021/11/18 01:21:21;;;;;;;15.70;10.13;;;;;;;;;;4959448;28;20263;-53
2021/11/18 01:23:49;;;;;;;13.13;9.30;;;;;;;;;;4978866;28;20180;-52
2021/11/18 01:26:17;;;;;;;11.80;8.73;;;;;;;;;;4959119;28;20540;-53
2021/11/18 01:28:47;;;;;;;13.53;9.60;;;;;;;;;;4971476;28;20184;-53
2021/11/18 01:31:14;;;;;;;11.57;8.70;;;;;;;;;;4963907;28;20667;-53
2021/11/18 01:33:44;;;;;;;14.77;9.03;;;;;;;;;;4963844;28;20186;-52
2021/11/18 01:36:10;;;;;;;11.70;8.77;;;;;;;;;;4954781;28;20303;-53
2021/11/18 01:38:37;;;;;;;14.53;9.67;;;;;;;;;;4962701;28;20214;-53
2021/11/18 01:41:08;;;;;;;13.83;9.83;;;;;;;;;;4968325;28;20183;-53
2021/11/18 01:43:37;;;;;;;16.87;9.73;;;;;;;;;;4966147;28;20180;-53
2021/11/18 01:46:08;;;;;;;12.60;8.70;;;;;;;;;;4971798;28;20187;-53
2021/11/18 01:48:34;;;;;;;11.60;9.10;;;;;;;;;;4981713;28;20570;-53
2021/11/18 01:51:03;;;;;;;13.27;8.77;;;;;;;;;;4975779;28;20234;-54
2021/11/18 01:53:38;;;;;;;14.13;9.63;;;;;;;;;;4967137;28;20187;-53
2021/11/18 01:56:08;;;;;;;11.57;9.17;;;;;;;;;;4956453;28;20609;-54
2021/11/18 01:58:35;;;;;;;11.53;9.50;;;;;;;;;;4984006;28;20215;-53
2021/11/18 02:01:02;;;;;;;15.37;9.73;;;;;;;;;;4957614;28;20186;-53
2021/11/18 02:03:29;;;;;;;13.93;9.60;;;;;;;;;;4970502;28;20192;-53
2021/11/18 02:05:57;;;;;;;16.77;9.47;;;;;;;;;;4984263;28;20183;-53
2021/11/18 02:08:24;;;;;;;12.13;9.03;;;;;;;;;;4980934;28;20192;-53
2021/11/18 02:10:51;;;;;;;13.07;10.00;;;;;;;;;;4967392;28;20195;-53
2021/11/18 02:13:19;;;;;;;11.77;9.37;;;;;;;;;;4987106;28;20306;-51
2021/11/18 02:15:47;;;;;;;11.47;8.60;;;;;;;;;;4987714;28;20563;-53
2021/11/18 02:18:33;;;;;;;14.73;8.83;;;;;;;;;;5002496;28;20692;-54
2021/11/18 02:21:01;;;;;;;10.67;8.67;;;;;;;;;;4989965;28;20182;-54
2021/11/18 02:23:32;;;;;;;16.90;9.70;;;;;;;;;;4985091;28;20315;-54
2021/11/18 02:25:59;;;;;;;14.03;8.40;;;;;;;;;;4996118;28;20563;-54
2021/11/18 02:28:27;;;;;;;14.13;9.17;;;;;;;;;;4985513;28;20191;-54
2021/11/18 02:30:54;;;;;;;11.60;9.63;;;;;;;;;;4998925;28;20182;-52
2021/11/18 02:33:21;;;;;;;16.90;10.43;;;;;;;;;;4974202;28;20182;-52
2021/11/18 02:35:48;;;;;;;15.37;9.43;;;;;;;;;;4987878;28;20190;-52
2021/11/18 02:38:15;;;;;;;20.17;9.77;;;;;;;;;;4988861;28;20358;-52
2021/11/18 02:40:42;;;;;;;14.80;9.13;;;;;;;;;;5004939;28;20193;-53
2021/11/18 02:43:14;;;;;;;12.40;8.73;;;;;;;;;;4988948;28;20179;-53
2021/11/18 02:45:43;;;;;;;14.33;9.37;;;;;;;;;;5006546;28;20178;-53
2021/11/18 02:48:12;;;;;;;14.70;9.33;;;;;;;;;;4981307;28;20183;-53
2021/11/18 02:50:41;;;;;;;13.90;9.27;;;;;;;;;;4979477;28;20669;-54
2021/11/18 02:53:08;;;;;;;12.63;8.43;;;;;;;;;;4988032;28;20551;-53
2021/11/18 02:55:37;;;;;;;13.57;8.80;;;;;;;;;;4993324;28;20237;-52
2021/11/18 02:58:03;;;;;;;11.90;9.37;;;;;;;;;;4981856;28;20206;-53
2021/11/18 03:00:34;;;;;;;14.20;9.83;;;;;;;;;;4983710;28;20179;-53
2021/11/18 03:03:00;;;;;;;12.63;9.77;;;;;;;;;;5006466;28;20179;-52
2021/11/18 03:05:27;;;;;;;14.10;8.83;;;;;;;;;;4995568;28;20187;-53
2021/11/18 03:07:57;;;;;;;13.57;8.70;;;;;;;;;;5003419;28;20198;-53
2021/11/18 03:10:25;;;;;;;14.17;10.23;;;;;;;;;;4981160;28;20190;-52
2021/11/18 03:12:51;;;;;;;12.87;9.47;;;;;;;;;;5001702;28;20215;-52
2021/11/18 03:15:19;;;;;;;11.80;9.23;;;;;;;;;;4996698;28;20194;-53
2021/11/18 03:17:47;;;;;;;14.33;9.73;;;;;;;;;;4977819;28;20207;-53
2021/11/18 03:20:15;;;;;;;13.10;9.50;;;;;;;;;;4980197;28;20215;-53
2021/11/18 03:22:42;;;;;;;12.77;9.33;;;;;;;;;;4976502;28;20188;-53
2021/11/18 03:25:09;;;;;;;14.93;9.53;;;;;;;;;;4978119;28;20186;-52
2021/11/18 03:27:36;;;;;;;15.50;8.93;;;;;;;;;;4979758;28;20194;-52
2021/11/18 03:30:03;;;;;;;13.40;9.37;;;;;;;;;;5001316;28;20656;-52
2021/11/18 03:32:30;;;;;;;13.30;8.47;;;;;;;;;;5006248;28;20236;-53
2021/11/18 03:34:56;;;;;;;14.60;9.73;;;;;;;;;;4987850;28;20670;-53
2021/11/18 03:37:23;;;;;;;11.60;8.80;;;;;;;;;;4991530;28;20265;-53
2021/11/18 03:39:49;;;;;;;12.07;9.10;;;;;;;;;;4987383;28;20179;-52
2021/11/18 03:42:15;;;;;;;14.90;9.47;;;;;;;;;;4997439;28;20179;-53
2021/11/18 03:44:42;;;;;;;13.53;9.37;;;;;;;;;;5001873;28;20186;-53
2021/11/18 03:47:10;;;;;;;10.40;8.87;;;;;;;;;;5006047;28;20665;-53
2021/11/18 03:49:37;;;;;;;12.67;9.20;;;;;;;;;;4990235;28;20202;-53
2021/11/18 03:52:05;;;;;;;16.40;9.80;;;;;;;;;;5007189;28;20664;-53
2021/11/18 03:54:32;;;;;;;12.13;9.20;;;;;;;;;;5005111;28;20557;-53
2021/11/18 03:56:59;;;;;;;12.00;9.70;;;;;;;;;;4984978;28;20567;-53
2021/11/18 03:59:28;;;;;;;13.70;8.93;;;;;;;;;;4988522;28;20233;-53
2021/11/18 04:01:55;;;;;;;13.60;9.40;;;;;;;;;;4992311;28;20171;-53
2021/11/18 04:04:23;;;;;;;12.93;9.63;;;;;;;;;;4999029;28;20201;-53
2021/11/18 04:06:50;;;;;;;12.63;9.63;;;;;;;;;;5002791;28;20228;-53
2021/11/18 04:09:17;;;;;;;14.57;9.63;;;;;;;;;;4983808;28;20222;-53
2021/11/18 04:11:45;;;;;;;15.00;9.57;;;;;;;;;;4995929;28;20183;-53
2021/11/18 04:14:12;;;;;;;17.40;9.93;;;;;;;;;;4993519;28;20330;-53
2021/11/18 04:16:39;;;;;;;16.30;11.47;;;;;;;;;;4967644;28;20214;-53
2021/11/18 04:19:06;;;;;;;14.57;9.97;;;;;;;;;;4968604;28;20204;-53
2021/11/18 04:21:33;;;;;;;13.33;9.20;;;;;;;;;;4963186;28;20180;-53
2021/11/18 04:24:01;;;;;;;14.83;9.60;;;;;;;;;;4968164;28;20183;-53
2021/11/18 04:26:27;;;;;;;14.27;9.40;;;;;;;;;;4965420;28;20283;-53
2021/11/18 04:28:54;;;;;;;13.10;8.37;;;;;;;;;;4987858;28;20187;-53
2021/11/18 04:31:22;;;;;;;14.77;10.53;;;;;;;;;;4972425;28;20183;-53
2021/11/18 04:33:49;;;;;;;14.23;9.90;;;;;;;;;;4971079;28;20670;-53
2021/11/18 04:36:19;;;;;;;16.17;9.57;;;;;;;;;;4961249;28;20186;-53
2021/11/18 04:38:46;;;;;;;14.87;9.63;;;;;;;;;;4984807;28;20251;-53
2021/11/18 04:41:14;;;;;;;16.50;10.07;;;;;;;;;;4954445;28;20180;-53
2021/11/18 04:43:41;;;;;;;17.17;10.17;;;;;;;;;;4964869;28;20179;-53
2021/11/18 04:46:09;;;;;;;16.57;9.73;;;;;;;;;;4985726;28;20261;-53
2021/11/18 04:48:39;;;;;;;14.83;8.90;;;;;;;;;;4956998;28;20543;-54
2021/11/18 04:51:06;;;;;;;16.87;10.30;;;;;;;;;;4981790;28;20658;-54
2021/11/18 04:53:32;;;;;;;16.37;9.73;;;;;;;;;;4983696;28;20183;-53
2021/11/18 04:55:59;;;;;;;15.70;9.10;;;;;;;;;;4972758;28;20250;-54
2021/11/18 04:58:26;;;;;;;15.27;9.57;;;;;;;;;;4982201;28;20432;-53
2021/11/18 05:00:54;;;;;;;13.53;9.33;;;;;;;;;;4989336;28;20187;-54
2021/11/18 05:03:23;;;;;;;16.27;10.37;;;;;;;;;;4967262;28;20270;-53
2021/11/18 05:05:50;;;;;;;16.97;10.60;;;;;;;;;;4966133;28;20184;-53
2021/11/18 05:08:17;;;;;;;14.57;9.80;;;;;;;;;;4978530;28;20289;-54
2021/11/18 05:10:45;;;;;;;15.33;10.17;;;;;;;;;;4968997;28;20218;-53
2021/11/18 05:13:11;;;;;;;14.03;9.53;;;;;;;;;;4966806;28;20210;-54
2021/11/18 05:15:39;;;;;;;15.07;9.53;;;;;;;;;;4988005;28;20186;-53
2021/11/18 05:18:06;;;;;;;11.10;8.50;;;;;;;;;;5005143;28;20314;-53
2021/11/18 05:20:33;;;;;;;13.00;8.60;;;;;;;;;;4989786;28;20648;-53
2021/11/18 05:22:59;;;;;;;14.53;9.17;;;;;;;;;;4995359;28;20270;-53
2021/11/18 05:25:27;;;;;;;12.93;8.67;;;;;;;;;;5000020;28;20270;-54
2021/11/18 05:27:53;;;;;;;18.53;9.27;;;;;;;;;;4983090;28;20602;-54
2021/11/18 05:30:21;;;;;;;16.13;9.03;;;;;;;;;;4980996;28;20178;-53
2021/11/18 05:32:48;;;;;;;11.43;8.53;;;;;;;;;;4997109;28;20594;-51
2021/11/18 05:35:14;;;;;;;13.33;8.10;;;;;;;;;;4981669;28;20186;-51
2021/11/18 05:37:41;;;;;;;16.13;8.50;;;;;;;;;;4982640;28;20669;-52
2021/11/18 05:40:08;;;;;;;13.33;8.40;;;;;;;;;;4979092;28;20175;-53
2021/11/18 05:42:35;;;;;;;11.00;8.60;;;;;;;;;;5008519;28;20186;-53
2021/11/18 05:45:02;;;;;;;13.73;8.20;;;;;;;;;;4976426;28;20201;-53
2021/11/18 05:47:28;;;;;;;18.10;9.37;;;;;;;;;;4984157;28;20183;-53
2021/11/18 05:49:54;;;;;;;15.60;8.90;;;;;;;;;;4981881;28;20264;-52
2021/11/18 05:52:22;;;;;;;16.53;8.40;;;;;;;;;;5005125;28;20684;-53
2021/11/18 05:54:49;;;;;;;14.90;9.07;;;;;;;;;;4989833;28;20634;-52
2021/11/18 05:57:15;;;;;;;12.67;8.93;;;;;;;;;;4989946;28;20607;-53
2021/11/18 05:59:42;;;;;;;11.23;8.50;;;;;;;;;;5005805;28;20210;-53
2021/11/18 06:02:08;;;;;;;13.97;9.00;;;;;;;;;;4990796;28;20179;-52
2021/11/18 06:04:34;;;;;;;16.87;8.47;;;;;;;;;;4993973;28;20179;-52
2021/11/18 06:07:01;;;;;;;11.97;8.17;;;;;;;;;;4985070;28;20190;-52
2021/11/18 06:09:27;;;;;;;14.03;8.63;;;;;;;;;;4978557;28;20665;-53
2021/11/18 06:11:59;;;;;;;12.60;7.87;;;;;;;;;;4997165;28;20193;-53
2021/11/18 06:14:26;;;;;;;17.63;7.73;;;;;;;;;;4987315;28;20590;-53
2021/11/18 06:16:52;;;;;;;12.03;7.90;;;;;;;;;;4990670;28;20270;-52
2021/11/18 06:19:19;;;;;;;14.07;8.03;;;;;;;;;;5008140;28;20200;-52
2021/11/18 06:21:48;;;;;;;13.97;7.90;;;;;;;;;;4991396;28;20612;-53
2021/11/18 06:24:14;;;;;;;12.90;7.80;;;;;;;;;;4989789;28;20183;-52
2021/11/18 06:26:41;;;;;;;13.63;8.57;;;;;;;;;;5008942;28;20547;-53
2021/11/18 06:29:08;;;;;;;16.77;8.53;;;;;;;;;;5007888;28;20185;-52
2021/11/18 06:31:34;;;;;;;10.10;7.80;;;;;;;;;;5008380;28;20197;-53
2021/11/18 06:34:00;;;;;;;16.27;9.90;;;;;;;;;;4988205;28;20677;-53
2021/11/18 06:36:27;;;;;;;13.57;7.77;;;;;;;;;;5003097;28;20182;-52
2021/11/18 06:38:53;;;;;;;17.07;9.17;;;;;;;;;;4990237;28;20698;-53
2021/11/18 06:41:21;;;;;;;15.73;9.37;;;;;;;;;;5006798;28;20205;-53
2021/11/18 06:43:48;;;;;;;15.33;9.37;;;;;;;;;;5006647;28;20701;-53
2021/11/18 06:46:15;;;;;;;13.23;8.83;;;;;;;;;;5008120;28;20175;-53
2021/11/18 06:48:42;;;;;;;13.10;8.50;;;;;;;;;;4992437;28;20658;-54
2021/11/18 06:51:10;;;;;;;13.17;8.33;;;;;;;;;;4955848;28;20179;-53
2021/11/18 06:53:37;;;;;;;19.40;10.27;;;;;;;;;;4977706;28;20547;-52
2021/11/18 06:56:04;;;;;;;17.03;10.20;;;;;;;;;;5027194;28;20208;-53
2021/11/18 06:58:30;;;;;;;17.53;10.73;;;;;;;;;;5011448;28;20580;-52
2021/11/18 07:00:57;;;;;;;19.00;11.13;;;;;;;;;;5007734;28;20202;-53
2021/11/18 07:03:23;;;;;;;22.53;11.37;;;;;;;;;;5007799;28;20228;-52
2021/11/18 07:05:50;;;;;;;22.40;11.90;;;;;;;;;;4990421;28;20203;-53
2021/11/18 07:08:17;;;;;;;22.73;11.97;;;;;;;;;;4974441;28;20198;-53
2021/11/18 07:10:44;;;;;;;21.00;11.70;;;;;;;;;;4991510;28;20195;-53
2021/11/18 07:13:18;;;;;;;25.10;12.47;;;;;;;;;;4989988;28;20593;-52
2021/11/18 07:15:44;;;;;;;19.30;11.93;;;;;;;;;;5004416;28;20175;-52
2021/11/18 07:18:10;;;;;;;21.43;13.13;;;;;;;;;;4994087;28;20213;-53
2021/11/18 07:20:37;;;;;;;21.07;11.93;;;;;;;;;;4979208;28;20676;-53
2021/11/18 07:23:03;;;;;;;24.90;12.97;;;;;;;;;;5020030;28;20186;-53
2021/11/18 07:25:30;;;;;;;19.80;12.53;;;;;;;;;;5002802;28;20182;-52
2021/11/18 07:27:56;;;;;;;24.40;12.67;;;;;;;;;;4992438;28;20201;-53
2021/11/18 07:30:24;;;;;;;24.30;13.03;;;;;;;;;;5012176;28;20242;-52
2021/11/18 07:32:51;;;;;;;26.93;13.03;;;;;;;;;;5003895;28;20264;-52
2021/11/18 07:35:18;;;;;;;27.23;12.87;;;;;;;;;;4973511;28;20267;-52
2021/11/18 07:37:45;;;;;;;23.87;13.17;;;;;;;;;;4981806;28;20276;-52
2021/11/18 07:40:13;;;;;;;22.23;13.27;;;;;;;;;;5010985;28;20646;-53
2021/11/18 07:42:39;;;;;;;31.93;13.63;;;;;;;;;;5002637;28;20186;-53
2021/11/18 07:45:07;;;;;;;27.30;13.10;;;;;;;;;;4981550;28;20193;-53
2021/11/18 07:47:34;;;;;;;28.20;13.80;;;;;;;;;;4991850;28;20545;-53
2021/11/18 07:50:01;;;;;;;28.87;14.37;;;;;;;;;;5010163;28;20657;-53
2021/11/18 07:52:27;;;;;;;28.50;13.27;;;;;;;;;;5011135;28;20182;-53
2021/11/18 07:54:53;;;;;;;30.10;15.10;;;;;;;;;;4993300;28;20630;-53
2021/11/18 07:57:20;;;;;;;26.50;13.93;;;;;;;;;;4993889;28;20298;-53
2021/11/18 07:59:46;;;;;;;25.80;13.47;;;;;;;;;;5003553;28;20198;-52
2021/11/18 08:02:12;;;;;;;23.33;12.90;;;;;;;;;;5005443;28;20549;-52
2021/11/18 08:04:39;;;;;;;19.97;13.47;;;;;;;;;;4991122;28;20204;-52
2021/11/18 08:07:06;;;;;;;24.57;14.53;;;;;;;;;;5009900;28;20183;-52
2021/11/18 08:09:33;;;;;;;25.97;14.60;;;;;;;;;;5010381;28;20661;-53
2021/11/18 08:12:00;;;;;;;27.50;13.67;;;;;;;;;;4992713;28;20187;-53
2021/11/18 08:14:27;;;;;;;23.33;13.27;;;;;;;;;;4989437;28;20281;-53
2021/11/18 08:16:54;;;;;;;24.07;13.37;;;;;;;;;;4988661;28;20265;-53
2021/11/18 08:19:21;;;;;;;31.27;13.20;;;;;;;;;;4988574;28;20203;-52
2021/11/18 08:21:48;;;;;;;23.93;12.87;;;;;;;;;;4982317;28;20177;-52
2021/11/18 08:24:16;;;;;;;26.97;13.20;;;;;;;;;;4992524;28;20187;-52
2021/11/18 08:26:43;;;;;;;30.40;14.60;;;;;;;;;;4984849;28;20185;-51
2021/11/18 08:29:10;;;;;;;34.47;13.27;;;;;;;;;;4979280;28;20178;-53
2021/11/18 08:31:40;;;;;;;24.67;13.73;;;;;;;;;;4976190;28;20186;-52
2021/11/18 08:34:07;;;;;;;30.40;14.53;;;;;;;;;;4976446;28;20216;-52
2021/11/18 08:36:37;;;;;;;25.90;14.27;;;;;;;;;;4992772;28;20273;-52
2021/11/18 08:39:04;;;;;;;22.77;13.20;;;;;;;;;;4991412;28;20223;-52
2021/11/18 08:41:30;;;;;;;26.47;13.10;;;;;;;;;;5003689;28;20495;-52
2021/11/18 08:43:56;;;;;;;25.10;13.97;;;;;;;;;;4988223;28;20193;-52
2021/11/18 08:46:26;;;;;;;26.97;13.93;;;;;;;;;;4997460;28;20430;-52
2021/11/18 08:48:58;;;;;;;27.07;14.97;;;;;;;;;;5009992;28;20190;-52
2021/11/18 08:51:24;;;;;;;31.20;14.80;;;;;;;;;;5010296;28;20274;-52
2021/11/18 08:53:52;;;;;;;28.77;14.50;;;;;;;;;;5009699;28;20554;-52
2021/11/18 08:56:19;;;;;;;28.97;14.50;;;;;;;;;;4992806;28;20596;-52
2021/11/18 08:58:46;;;;;;;32.03;16.03;;;;;;;;;;5006233;28;20210;-52
2021/11/18 09:01:15;;;;;;;29.57;12.53;;;;;;;;;;5008183;28;20225;-52
2021/11/18 09:03:42;;;;;;;31.33;14.30;;;;;;;;;;4988563;28;20191;-52
2021/11/18 09:06:10;;;;;;;34.93;14.47;;;;;;;;;;5008501;28;20210;-52
2021/11/18 09:08:36;;;;;;;26.47;13.70;;;;;;;;;;5001770;28;20882;-52
2021/11/18 09:11:05;;;;;;;29.23;14.57;;;;;;;;;;4996970;28;20180;-53
2021/11/18 09:13:31;;;;;;;27.57;14.40;;;;;;;;;;4994449;28;20534;-52
2021/11/18 09:15:58;;;;;;;34.73;14.43;;;;;;;;;;4984357;28;20179;-53
2021/11/18 09:18:24;;;;;;;30.87;14.93;;;;;;;;;;4994881;28;20194;-53
2021/11/18 09:20:52;;;;;;;35.40;14.60;;;;;;;;;;4968680;28;20946;-53
2021/11/18 09:23:19;;;;;;;27.40;14.13;;;;;;;;;;4983792;28;20187;-52
2021/11/18 09:25:47;;;;;;;27.47;14.07;;;;;;;;;;4987384;28;20792;-53
2021/11/18 09:28:14;;;;;;;31.83;14.27;;;;;;;;;;4970769;28;20187;-53
2021/11/18 09:30:47;;;;;;;28.77;13.83;;;;;;;;;;4980047;28;20215;-53
2021/11/18 09:33:14;;;;;;;33.43;14.37;;;;;;;;;;4985008;28;20190;-53
2021/11/18 09:35:42;;;;;;;25.77;12.50;;;;;;;;;;4998520;28;20201;-54
2021/11/18 09:38:10;;;;;;;30.00;16.27;;;;;;;;;;4989350;28;20258;-53
2021/11/18 09:40:39;;;;;;;37.93;13.43;;;;;;;;;;4971277;28;20194;-52
2021/11/18 09:43:11;;;;;;;23.23;12.87;;;;;;;;;;4988307;28;20183;-53
2021/11/18 09:45:41;;;;;;;26.67;12.33;;;;;;;;;;4971626;28;20190;-53
2021/11/18 09:48:13;;;;;;;23.97;12.87;;;;;;;;;;4964939;28;20585;-53
2021/11/18 09:50:58;;;;;;;20.93;12.07;;;;;;;;;;4991554;28;20213;-52
2021/11/18 09:53:42;;;;;;;28.03;13.60;;;;;;;;;;4988290;28;20266;-53
2021/11/18 09:56:26;;;;;;;28.23;12.73;;;;;;;;;;4971353;28;20263;-53
2021/11/18 09:58:56;;;;;;;25.60;12.23;;;;;;;;;;4970159;28;20789;-53
2021/11/18 10:01:22;;;;;;;28.30;13.27;;;;;;;;;;4971839;28;20187;-52
2021/11/18 10:03:55;;;;;;;22.30;12.27;;;;;;;;;;4969906;28;20519;-53
2021/11/18 10:06:27;;;;;;;26.80;12.00;;;;;;;;;;4989009;28;20296;-53
2021/11/18 10:09:05;;;;;;;22.27;12.73;;;;;;;;;;4983522;28;20642;-54
2021/11/18 10:11:50;;;;;;;25.47;11.90;;;;;;;;;;4986169;28;20602;-53
2021/11/18 10:14:16;;;;;;;25.10;12.53;;;;;;;;;;4985814;28;20225;-54
2021/11/18 10:16:48;;;;;;;25.20;12.47;;;;;;;;;;4968696;28;20634;-53
2021/11/18 10:19:18;;;;;;;23.53;12.13;;;;;;;;;;4970587;28;20289;-53
2021/11/18 10:21:45;;;;;;;31.43;13.57;;;;;;;;;;4975935;28;20546;-54
2021/11/18 10:24:17;;;;;;;27.07;12.10;;;;;;;;;;4997554;28;20186;-54
2021/11/18 10:27:09;;;;;;;20.33;11.10;;;;;;;;;;4990195;28;20213;-54
2021/11/18 10:29:37;;;;;;;20.67;11.37;;;;;;;;;;4999784;28;20205;-53
2021/11/18 10:32:06;;;;;;;22.73;11.57;;;;;;;;;;4989032;28;20187;-53
2021/11/18 10:34:33;;;;;;;24.73;12.17;;;;;;;;;;5003613;28;20529;-53
2021/11/18 10:37:08;;;;;;;23.23;11.83;;;;;;;;;;4989445;28;20186;-53
2021/11/18 10:39:40;;;;;;;26.83;12.63;;;;;;;;;;5007357;28;20288;-53
2021/11/18 10:42:11;;;;;;;25.93;11.20;;;;;;;;;;5003016;28;20212;-53
2021/11/18 10:44:46;;;;;;;30.57;12.53;;;;;;;;;;5017545;28;20182;-54
2021/11/18 10:47:22;;;;;;;24.23;10.83;;;;;;;;;;4999114;28;20213;-54
2021/11/18 10:49:48;;;;;;;25.13;11.57;;;;;;;;;;4993155;28;20622;-53
2021/11/18 10:52:20;;;;;;;29.37;11.10;;;;;;;;;;5006608;28;20183;-53
2021/11/18 10:54:48;;;;;;;22.90;11.30;;;;;;;;;;4984144;28;20588;-54
2021/11/18 10:57:19;;;;;;;22.37;10.03;;;;;;;;;;5004962;28;20206;-53
2021/11/18 10:59:50;;;;;;;22.43;11.53;;;;;;;;;;5017416;28;20293;-52
2021/11/18 11:02:20;;;;;;;21.77;10.37;;;;;;;;;;5008199;28;20322;-52
2021/11/18 11:04:47;;;;;;;21.07;10.37;;;;;;;;;;5006771;28;20179;-52
2021/11/18 11:07:14;;;;;;;24.03;12.33;;;;;;;;;;4987944;28;20237;-52
2021/11/18 11:09:43;;;;;;;20.70;10.30;;;;;;;;;;4965092;28;20733;-52
2021/11/18 11:12:21;;;;;;;20.97;10.37;;;;;;;;;;4991216;28;20178;-53
2021/11/18 11:14:55;;;;;;;18.93;10.13;;;;;;;;;;5007646;28;20312;-52
2021/11/18 11:17:40;;;;;;;20.57;10.43;;;;;;;;;;5012050;28;20182;-52
2021/11/18 11:20:25;;;;;;;12.50;8.87;;;;;;;;;;4976409;28;20198;-52
2021/11/18 11:23:10;;;;;;;18.63;9.97;;;;;;;;;;5008281;28;20294;-52
2021/11/18 11:25:48;;;;;;;22.43;10.60;;;;;;;;;;4985555;28;20547;-53
2021/11/18 11:28:32;;;;;;;22.57;9.30;;;;;;;;;;4977750;28;20221;-53
2021/11/18 11:31:12;;;;;;;16.70;10.00;;;;;;;;;;4990742;28;20186;-53
2021/11/18 11:33:44;;;;;;;21.30;8.80;;;;;;;;;;5009546;28;20221;-53
2021/11/18 11:36:22;;;;;;;23.33;9.70;;;;;;;;;;4999792;28;20179;-54
2021/11/18 11:38:55;;;;;;;19.20;8.70;;;;;;;;;;4992341;28;20210;-52
2021/11/18 11:41:25;;;;;;;18.13;8.40;;;;;;;;;;4992241;28;20769;-53
2021/11/18 11:44:08;;;;;;;25.53;8.37;;;;;;;;;;5003197;28;20305;-52
2021/11/18 11:46:37;;;;;;;17.87;8.77;;;;;;;;;;5011146;28;20162;-52
2021/11/18 11:49:24;;;;;;;15.77;8.50;;;;;;;;;;4979317;28;20216;-52
2021/11/18 11:51:50;;;;;;;21.97;9.07;;;;;;;;;;4998583;28;20178;-52
2021/11/18 11:54:35;;;;;;;15.20;7.83;;;;;;;;;;5012695;28;20251;-52
2021/11/18 11:57:21;;;;;;;15.93;8.60;;;;;;;;;;4992747;28;20234;-53
2021/11/18 11:59:49;;;;;;;16.33;7.87;;;;;;;;;;4978065;28;20693;-53
2021/11/18 12:02:42;;;;;;;14.83;7.67;;;;;;;;;;5008417;28;20643;-53
2021/11/18 12:05:13;;;;;;;19.77;7.87;;;;;;;;;;4958679;28;20198;-53
2021/11/18 12:07:53;;;;;;;19.07;7.83;;;;;;;;;;4995258;28;20190;-53
2021/11/18 12:10:35;;;;;;;20.27;7.70;;;;;;;;;;4992678;28;20662;-53
2021/11/18 12:13:07;;;;;;;23.03;7.20;;;;;;;;;;4996095;28;20541;-53
2021/11/18 12:15:39;;;;;;;18.07;8.10;;;;;;;;;;4991402;28;20642;-53
2021/11/18 12:18:08;;;;;;;17.67;6.97;;;;;;;;;;5005142;28;20203;-53
2021/11/18 12:20:36;;;;;;;15.23;6.80;;;;;;;;;;5010435;28;20184;-53
2021/11/18 12:23:05;;;;;;;18.83;7.00;;;;;;;;;;5000562;28;20285;-53
2021/11/18 12:25:45;;;;;;;22.60;7.30;;;;;;;;;;4991079;28;20658;-53
2021/11/18 12:28:11;;;;;;;19.03;7.63;;;;;;;;;;4985994;28;20178;-53
2021/11/18 12:30:47;;;;;;;17.03;7.57;;;;;;;;;;5010459;28;20540;-54
2021/11/18 12:33:19;;;;;;;15.17;6.83;;;;;;;;;;4990628;28;20551;-53
2021/11/18 12:35:49;;;;;;;14.70;7.20;;;;;;;;;;5010117;28;20182;-54
2021/11/18 12:38:34;;;;;;;27.67;7.43;;;;;;;;;;4990641;28;20210;-52
2021/11/18 12:41:18;;;;;;;15.43;6.83;;;;;;;;;;4996588;28;20175;-54
2021/11/18 12:43:45;;;;;;;15.47;6.63;;;;;;;;;;4994717;28;20189;-54
2021/11/18 12:46:23;;;;;;;15.00;6.43;;;;;;;;;;4992301;28;20593;-53
2021/11/18 12:48:53;;;;;;;19.10;6.43;;;;;;;;;;5022091;28;20197;-53
2021/11/18 12:51:22;;;;;;;18.83;6.50;;;;;;;;;;5004724;28;20269;-54
2021/11/18 12:54:06;;;;;;;20.57;6.87;;;;;;;;;;5008153;28;20569;-53
2021/11/18 12:56:56;;;;;;;13.87;6.87;;;;;;;;;;5005446;28;20206;-53
2021/11/18 12:59:44;;;;;;;18.13;6.43;;;;;;;;;;4990540;28;20689;-54
2021/11/18 13:02:11;;;;;;;12.80;6.40;;;;;;;;;;5006345;28;20626;-52
2021/11/18 13:04:45;;;;;;;17.00;7.07;;;;;;;;;;4996483;28;20262;-53
2021/11/18 13:07:31;;;;;;;12.43;6.13;;;;;;;;;;4991242;28;20196;-53
2021/11/18 13:10:07;;;;;;;16.23;6.40;;;;;;;;;;5004227;28;20203;-54
2021/11/18 13:12:33;;;;;;;19.03;8.17;;;;;;;;;;4999145;28;20268;-53
2021/11/18 13:15:02;;;;;;;12.83;5.87;;;;;;;;;;4990172;28;20250;-53
2021/11/18 13:17:36;;;;;;;17.03;6.47;;;;;;;;;;4987616;28;20179;-53
2021/11/18 13:20:06;;;;;;;12.30;5.53;;;;;;;;;;4993315;28;20201;-53
2021/11/18 13:22:33;;;;;;;10.87;6.20;;;;;;;;;;4970977;28;20214;-53
2021/11/18 13:25:02;;;;;;;16.83;7.47;;;;;;;;;;4972160;28;20694;-54
2021/11/18 13:27:35;;;;;;;14.17;5.77;;;;;;;;;;4970731;28;20278;-54
2021/11/18 13:30:02;;;;;;;10.53;6.23;;;;;;;;;;4986306;28;20634;-53
2021/11/18 13:32:30;;;;;;;14.07;6.47;;;;;;;;;;4988063;28;20187;-53
2021/11/18 13:35:06;;;;;;;14.50;6.13;;;;;;;;;;4966922;28;20182;-53
2021/11/18 13:37:37;;;;;;;17.53;5.80;;;;;;;;;;4988075;28;20214;-53
2021/11/18 13:40:23;;;;;;;14.57;6.07;;;;;;;;;;4972023;28;20207;-53
2021/11/18 13:42:59;;;;;;;11.73;5.57;;;;;;;;;;4968956;28;20281;-53
2021/11/18 13:45:32;;;;;;;18.87;6.30;;;;;;;;;;4971433;28;20186;-54
2021/11/18 13:48:01;;;;;;;16.13;5.30;;;;;;;;;;4970579;28;20178;-53
2021/11/18 13:50:33;;;;;;;16.00;5.90;;;;;;;;;;4990011;28;20181;-53
2021/11/18 13:53:07;;;;;;;13.87;5.47;;;;;;;;;;4988551;28;20175;-53
2021/11/18 13:55:54;;;;;;;20.80;6.23;;;;;;;;;;4980464;28;20203;-53
2021/11/18 13:58:35;;;;;;;12.20;5.80;;;;;;;;;;4970372;28;20203;-53
2021/11/18 14:01:09;;;;;;;16.87;5.37;;;;;;;;;;4983949;28;20991;-53
2021/11/18 14:03:39;;;;;;;11.73;4.57;;;;;;;;;;4995363;28;20209;-53
2021/11/18 14:06:08;;;;;;;14.87;5.43;;;;;;;;;;4995559;28;20176;-53
2021/11/18 14:08:37;;;;;;;19.67;6.87;;;;;;;;;;4952022;28;20187;-53
2021/11/18 14:11:03;;;;;;;14.37;4.60;;;;;;;;;;4971594;28;20191;-53
2021/11/18 14:13:36;;;;;;;10.13;4.40;;;;;;;;;;4993074;28;20218;-53
2021/11/18 14:16:10;;;;;;;13.20;5.00;;;;;;;;;;5007347;28;20190;-53
2021/11/18 14:18:38;;;;;;;10.17;5.40;;;;;;;;;;5004564;28;20209;-53
2021/11/18 14:21:10;;;;;;;8.17;4.33;;;;;;;;;;4987386;28;20191;-53
2021/11/18 14:23:39;;;;;;;14.03;5.43;;;;;;;;;;5006696;28;20558;-53
2021/11/18 14:26:11;;;;;;;11.93;5.00;;;;;;;;;;4989468;28;20178;-54
2021/11/18 14:28:49;;;;;;;12.90;4.60;;;;;;;;;;5001261;28;20183;-53
2021/11/18 14:31:34;;;;;;;7.30;4.20;;;;;;;;;;4982076;28;20281;-53
2021/11/18 14:34:03;;;;;;;11.80;5.03;;;;;;;;;;5008092;28;20196;-53
2021/11/18 14:36:35;;;;;;;10.00;4.30;;;;;;;;;;5009059;28;20190;-53
2021/11/18 14:39:18;;;;;;;11.67;4.90;;;;;;;;;;5008401;28;20224;-53